createdAt,value
2023-04-30T00:02:25.564Z,102103.28
2023-04-30T00:04:57.524Z,102091.38
2023-04-30T00:07:29.527Z,102089.56
2023-04-30T00:10:01.425Z,102098.53
2023-04-30T00:12:33.315Z,102096.66
2023-04-30T00:15:06.061Z,102107.91
2023-04-30T00:17:38.019Z,102102.50
2023-04-30T00:20:10.786Z,102110.19
2023-04-30T00:22:42.689Z,102110.00
2023-04-30T00:25:14.766Z,102109.69
2023-04-30T00:27:46.821Z,102114.97
2023-04-30T00:30:18.946Z,102116.63
2023-04-30T00:32:50.926Z,102111.22
2023-04-30T00:35:22.831Z,102103.81
2023-04-30T00:37:54.810Z,102105.69
2023-04-30T00:40:27.051Z,102086.63
2023-04-30T00:42:59.001Z,102113.59
2023-04-30T00:45:30.970Z,102105.63
2023-04-30T00:48:03.352Z,102082.78
2023-04-30T00:50:37.101Z,102120.59
2023-04-30T00:53:09.110Z,102097.81
2023-04-30T00:55:43.382Z,102116.63
2023-04-30T00:58:16.087Z,102116.56
2023-04-30T01:00:49.776Z,102110.13
2023-04-30T01:03:23.050Z,102099.13
2023-04-30T01:05:55.317Z,102114.34
2023-04-30T01:08:27.549Z,102107.94
2023-04-30T01:11:28.558Z,102114.16
2023-04-30T01:14:38.393Z,102102.34
2023-04-30T01:18:10.953Z,102093.31
2023-04-30T01:21:08.312Z,102096.78
2023-04-30T01:24:32.101Z,102102.69
2023-04-30T01:27:06.798Z,102100.88
2023-04-30T01:29:43.384Z,102103.66
2023-04-30T01:32:15.323Z,102100.97
2023-04-30T01:34:47.251Z,102097.34
2023-04-30T01:37:57.517Z,102099.91
2023-04-30T01:40:52.782Z,102106.72
2023-04-30T01:43:45.866Z,102098.84
2023-04-30T01:46:36.167Z,102106.47
2023-04-30T01:49:35.995Z,102102.13
2023-04-30T01:52:38.392Z,102101.88
2023-04-30T01:55:37.987Z,102091.78
2023-04-30T01:58:16.909Z,102102.47
2023-04-30T02:00:48.889Z,102112.31
2023-04-30T02:03:21.047Z,102114.97
2023-04-30T02:05:53.675Z,102116.50
2023-04-30T02:08:25.736Z,102108.03
2023-04-30T02:10:57.681Z,102123.34
2023-04-30T02:13:29.548Z,102121.41
2023-04-30T02:16:01.470Z,102113.47
2023-04-30T02:18:33.451Z,102113.03
2023-04-30T02:21:05.869Z,102107.53
2023-04-30T02:23:37.822Z,102119.13
2023-04-30T02:26:09.800Z,102111.53
2023-04-30T02:28:42.499Z,102120.59
2023-04-30T02:31:14.541Z,102120.59
2023-04-30T02:33:46.491Z,102114.19
2023-04-30T02:36:18.406Z,102107.94
2023-04-30T02:38:50.348Z,102116.63
2023-04-30T02:41:22.376Z,102119.00
2023-04-30T02:43:54.796Z,102121.56
2023-04-30T02:46:26.793Z,102115.22
2023-04-30T02:48:58.738Z,102096.06
2023-04-30T02:51:31.349Z,102112.09
2023-04-30T02:54:03.433Z,102102.97
2023-04-30T02:56:35.599Z,102114.63
2023-04-30T02:59:08.275Z,102110.19
2023-04-30T03:01:40.507Z,102104.59
2023-04-30T03:04:12.475Z,102115.44
2023-04-30T03:06:44.595Z,102104.88
2023-04-30T03:09:16.892Z,102111.72
2023-04-30T03:11:49.426Z,102107.22
2023-04-30T03:14:21.455Z,102101.00
2023-04-30T03:16:53.364Z,102098.19
2023-04-30T03:19:25.644Z,102096.22
2023-04-30T03:21:57.736Z,102093.41
2023-04-30T03:24:30.248Z,102098.66
2023-04-30T03:27:02.270Z,102097.66
2023-04-30T03:29:34.220Z,102100.13
2023-04-30T03:32:06.164Z,102097.47
2023-04-30T03:34:38.676Z,102095.59
2023-04-30T03:37:10.636Z,102095.31
2023-04-30T03:39:42.615Z,102099.66
2023-04-30T03:42:14.568Z,102093.34
2023-04-30T03:44:46.593Z,102106.38
2023-04-30T03:47:18.580Z,102101.84
2023-04-30T03:49:55.490Z,102099.75
2023-04-30T03:52:27.747Z,102106.72
2023-04-30T03:54:59.875Z,102111.97
2023-04-30T03:57:32.974Z,102069.28
2023-04-30T04:00:10.148Z,102123.13
2023-04-30T04:02:42.456Z,102103.59
2023-04-30T04:05:14.381Z,102080.69
2023-04-30T04:07:46.321Z,102122.06
2023-04-30T04:10:18.325Z,102124.41
2023-04-30T04:12:50.879Z,102111.56
2023-04-30T04:15:22.863Z,102119.78
2023-04-30T04:17:54.905Z,102069.84
2023-04-30T04:20:27.521Z,102116.63
2023-04-30T04:22:59.571Z,102119.97
2023-04-30T04:25:31.643Z,102130.75
2023-04-30T04:28:03.740Z,102128.28
2023-04-30T04:30:36.748Z,102111.91
2023-04-30T04:33:09.344Z,102128.22
2023-04-30T04:35:41.378Z,102131.66
2023-04-30T04:38:13.428Z,102129.13
2023-04-30T04:40:55.833Z,102130.75
2023-04-30T04:43:27.812Z,102128.28
2023-04-30T04:45:59.766Z,102131.75
2023-04-30T04:48:31.721Z,102137.81
2023-04-30T04:51:03.857Z,102143.25
2023-04-30T04:53:36.604Z,102127.66
2023-04-30T04:56:09.066Z,102154.53
2023-04-30T04:58:42.854Z,102138.78
2023-04-30T05:01:15.479Z,102143.25
2023-04-30T05:03:47.752Z,102141.59
2023-04-30T05:06:20.290Z,102127.31
2023-04-30T05:08:52.232Z,102138.53
2023-04-30T05:11:24.276Z,102146.56
2023-04-30T05:13:58.267Z,102144.97
2023-04-30T05:16:30.401Z,102140.50
2023-04-30T05:19:02.390Z,102152.03
2023-04-30T05:21:34.301Z,102131.47
2023-04-30T05:24:06.522Z,102141.53
2023-04-30T05:26:38.546Z,102143.31
2023-04-30T05:29:12.194Z,102140.50
2023-04-30T05:31:44.181Z,102133.66
2023-04-30T05:34:16.077Z,102138.25
2023-04-30T05:36:48.006Z,102135.53
2023-04-30T05:39:19.971Z,102137.53
2023-04-30T05:41:53.377Z,102123.31
2023-04-30T05:44:25.584Z,102137.28
2023-04-30T05:46:57.547Z,102132.09
2023-04-30T05:49:29.949Z,102144.31
2023-04-30T05:52:03.582Z,102145.03
2023-04-30T05:54:35.632Z,102147.16
2023-04-30T05:57:07.574Z,102150.38
2023-04-30T05:59:39.652Z,102146.63
2023-04-30T06:02:11.632Z,102149.69
2023-04-30T06:04:43.679Z,102149.38
2023-04-30T06:07:15.666Z,102137.56
2023-04-30T06:09:47.595Z,102146.69
2023-04-30T06:12:19.601Z,102134.75
2023-04-30T06:14:52.714Z,102145.78
2023-04-30T06:17:24.733Z,102140.16
2023-04-30T06:19:58.650Z,102141.66
2023-04-30T06:22:30.880Z,102135.94
2023-04-30T06:25:03.569Z,102138.25
2023-04-30T06:27:35.513Z,102132.59
2023-04-30T06:30:09.038Z,102132.88
2023-04-30T06:32:41.498Z,102134.09
2023-04-30T06:35:13.679Z,102125.84
2023-04-30T06:37:45.597Z,102093.31
2023-04-30T06:40:17.823Z,102126.34
2023-04-30T06:42:49.758Z,102128.25
2023-04-30T06:45:21.817Z,102131.22
2023-04-30T06:47:53.762Z,102122.22
2023-04-30T06:50:26.516Z,102130.97
2023-04-30T06:52:58.535Z,102133.66
2023-04-30T06:55:30.614Z,102115.06
2023-04-30T06:58:02.704Z,102129.47
2023-04-30T07:00:37.477Z,102130.00
2023-04-30T07:03:09.544Z,102125.16
2023-04-30T07:05:41.750Z,102127.38
2023-04-30T07:08:15.168Z,102133.09
2023-04-30T07:10:47.077Z,102134.34
2023-04-30T07:13:19.067Z,102130.34
2023-04-30T07:15:51.813Z,102131.03
2023-04-30T07:18:23.827Z,102133.47
2023-04-30T07:20:55.902Z,102098.75
2023-04-30T07:23:29.177Z,102132.19
2023-04-30T07:26:02.507Z,102130.50
2023-04-30T07:28:34.447Z,102130.03
2023-04-30T07:31:07.625Z,102118.97
2023-04-30T07:33:39.639Z,102122.03
2023-04-30T07:36:11.702Z,102113.50
2023-04-30T07:38:43.813Z,102109.72
2023-04-30T07:41:15.839Z,102101.06
2023-04-30T07:43:47.918Z,102113.34
2023-04-30T07:46:19.919Z,102112.94
2023-04-30T07:48:51.874Z,102113.38
2023-04-30T07:51:24.039Z,102111.00
2023-04-30T07:53:56.070Z,102119.56
2023-04-30T07:56:28.021Z,102117.47
2023-04-30T07:59:00.136Z,102113.56
2023-04-30T08:01:32.644Z,102112.22
2023-04-30T08:04:04.893Z,102110.81
2023-04-30T08:06:36.951Z,102102.28
2023-04-30T08:09:09.083Z,102114.06
2023-04-30T08:11:41.087Z,102115.09
2023-04-30T08:14:13.025Z,102118.81
2023-04-30T08:16:45.026Z,102110.31
2023-04-30T08:19:16.950Z,102102.63
2023-04-30T08:21:48.940Z,102103.25
2023-04-30T08:24:21.056Z,102111.66
2023-04-30T08:26:54.252Z,102110.00
2023-04-30T08:29:27.798Z,102104.19
2023-04-30T08:32:04.307Z,102109.91
2023-04-30T08:34:36.486Z,102103.91
2023-04-30T08:37:08.417Z,102100.59
2023-04-30T08:39:40.491Z,102069.28
2023-04-30T08:42:15.404Z,102100.13
2023-04-30T08:44:48.233Z,102092.31
2023-04-30T08:47:22.692Z,102098.84
2023-04-30T08:49:55.387Z,102100.81
2023-04-30T08:52:30.318Z,102093.03
2023-04-30T08:55:07.018Z,102093.41
2023-04-30T08:57:38.981Z,102097.16
2023-04-30T09:00:11.742Z,101977.44
2023-04-30T09:02:44.903Z,102078.38
2023-04-30T09:05:16.948Z,102090.22
2023-04-30T09:08:02.552Z,102093.69
2023-04-30T09:10:36.233Z,102078.94
2023-04-30T09:13:09.583Z,102084.56
2023-04-30T09:15:42.206Z,102084.63
2023-04-30T09:18:18.341Z,102076.91
2023-04-30T09:21:01.813Z,102084.16
2023-04-30T09:23:33.882Z,102087.56
2023-04-30T09:26:06.636Z,102083.31
2023-04-30T09:28:54.638Z,102079.09
2023-04-30T09:31:27.260Z,102078.06
2023-04-30T09:33:59.295Z,102072.72
2023-04-30T09:36:31.769Z,102084.81
2023-04-30T09:39:17.563Z,102081.59
2023-04-30T09:41:52.317Z,102042.56
2023-04-30T09:44:35.747Z,102083.09
2023-04-30T09:47:20.129Z,102080.34
2023-04-30T09:49:52.590Z,102077.00
2023-04-30T09:52:25.257Z,102075.28
2023-04-30T09:54:57.221Z,102068.50
2023-04-30T09:57:32.424Z,102066.06
2023-04-30T10:00:05.852Z,102070.66
2023-04-30T10:02:39.319Z,102074.22
2023-04-30T10:05:12.243Z,102074.75
2023-04-30T10:07:44.402Z,102060.66
2023-04-30T10:10:17.316Z,102069.41
2023-04-30T10:12:56.425Z,102071.13
2023-04-30T10:15:52.883Z,102063.56
2023-04-30T10:18:34.577Z,102063.16
2023-04-30T10:21:13.029Z,102021.38
2023-04-30T10:23:46.377Z,102052.97
2023-04-30T10:26:18.710Z,102043.25
2023-04-30T10:28:53.580Z,102043.38
2023-04-30T10:31:26.297Z,102048.81
2023-04-30T10:34:25.684Z,102047.03
2023-04-30T10:37:18.806Z,102037.44
2023-04-30T10:39:52.289Z,102017.13
2023-04-30T10:42:24.565Z,102028.94
2023-04-30T10:44:56.843Z,102022.69
2023-04-30T10:47:33.011Z,101990.53
2023-04-30T10:50:08.753Z,102025.59
2023-04-30T10:52:41.167Z,102015.78
2023-04-30T10:55:18.232Z,101996.13
2023-04-30T10:57:52.435Z,102008.94
2023-04-30T11:00:29.708Z,102004.69
2023-04-30T11:03:04.579Z,101995.75
2023-04-30T11:05:40.155Z,102000.06
2023-04-30T11:08:12.261Z,101953.50
2023-04-30T11:11:00.603Z,102001.00
2023-04-30T11:13:45.438Z,101995.44
2023-04-30T11:16:17.579Z,101988.00
2023-04-30T11:18:52.589Z,101984.41
2023-04-30T11:21:26.057Z,101984.41
2023-04-30T11:24:06.936Z,101977.53
2023-04-30T11:27:13.124Z,101973.22
2023-04-30T11:29:46.637Z,101968.91
2023-04-30T11:32:24.194Z,101963.81
2023-04-30T11:34:56.627Z,101954.06
2023-04-30T11:37:35.262Z,101956.84
2023-04-30T11:40:12.736Z,101957.91
2023-04-30T11:42:46.650Z,101948.84
2023-04-30T11:45:20.916Z,101947.94
2023-04-30T11:47:55.426Z,101929.19
2023-04-30T11:50:34.018Z,101947.31
2023-04-30T11:53:06.103Z,101946.31
2023-04-30T11:55:41.694Z,101928.56
2023-04-30T11:58:13.652Z,101932.16
2023-04-30T12:00:45.673Z,101909.97
2023-04-30T12:03:17.978Z,101925.22
2023-04-30T12:05:50.992Z,101926.16
2023-04-30T12:08:23.665Z,101925.09
2023-04-30T12:10:55.752Z,101932.00
2023-04-30T12:13:27.762Z,101936.19
2023-04-30T12:16:01.011Z,101929.91
2023-04-30T12:18:33.602Z,101924.34
2023-04-30T12:21:05.750Z,101924.16
2023-04-30T12:23:38.430Z,101916.22
2023-04-30T12:26:10.437Z,101920.91
2023-04-30T12:28:42.460Z,101909.41
2023-04-30T12:31:14.619Z,101920.22
2023-04-30T12:33:55.746Z,101905.97
2023-04-30T12:36:32.936Z,101911.31
2023-04-30T12:39:09.431Z,101901.38
2023-04-30T12:41:44.959Z,101905.72
2023-04-30T12:44:22.601Z,101897.78
2023-04-30T12:47:00.647Z,101887.28
2023-04-30T12:49:35.843Z,101873.19
2023-04-30T12:52:14.053Z,101869.44
2023-04-30T12:54:45.960Z,101892.59
2023-04-30T12:57:17.985Z,101890.72
2023-04-30T12:59:53.396Z,101887.97
2023-04-30T13:02:28.516Z,101873.66
2023-04-30T13:05:00.596Z,101882.50
2023-04-30T13:07:41.601Z,101877.19
2023-04-30T13:10:14.118Z,101872.78
2023-04-30T13:12:46.255Z,101876.50
2023-04-30T13:15:18.314Z,101870.34
2023-04-30T13:17:50.585Z,101859.81
2023-04-30T13:20:24.883Z,101862.63
2023-04-30T13:22:57.169Z,101851.91
2023-04-30T13:25:29.506Z,101841.25
2023-04-30T13:28:01.506Z,101846.63
2023-04-30T13:30:34.447Z,101841.16
2023-04-30T13:33:06.485Z,101846.34
2023-04-30T13:35:39.029Z,101840.84
2023-04-30T13:38:11.228Z,101846.06
2023-04-30T13:40:43.112Z,101840.72
2023-04-30T13:43:15.055Z,101840.84
2023-04-30T13:45:46.958Z,101843.59
2023-04-30T13:48:18.985Z,101841.13
2023-04-30T13:50:54.861Z,101833.13
2023-04-30T13:53:27.171Z,101829.53
2023-04-30T13:55:59.445Z,101830.38
2023-04-30T13:58:31.511Z,101829.53
2023-04-30T14:01:03.712Z,101825.13
2023-04-30T14:03:36.068Z,101817.19
2023-04-30T14:06:08.158Z,101819.97
2023-04-30T14:08:40.111Z,101821.84
2023-04-30T14:11:12.106Z,101810.25
2023-04-30T14:13:44.089Z,101815.69
2023-04-30T14:16:16.203Z,101816.63
2023-04-30T14:18:48.342Z,101807.66
2023-04-30T14:21:20.324Z,101812.03
2023-04-30T14:23:52.355Z,101806.63
2023-04-30T14:26:24.447Z,101798.53
2023-04-30T14:28:57.398Z,101803.97
2023-04-30T14:31:29.433Z,101808.44
2023-04-30T14:34:01.600Z,101800.44
2023-04-30T14:36:35.169Z,101800.53
2023-04-30T14:39:07.467Z,101804.84
2023-04-30T14:41:39.367Z,101804.81
2023-04-30T14:44:11.311Z,101799.38
2023-04-30T14:46:43.431Z,101786.00
2023-04-30T14:49:15.389Z,101794.06
2023-04-30T14:51:47.336Z,101794.03
2023-04-30T14:54:19.264Z,101775.31
2023-04-30T14:56:52.343Z,101773.53
2023-04-30T14:59:24.278Z,101775.28
2023-04-30T15:01:56.902Z,101777.03
2023-04-30T15:04:28.930Z,101770.69
2023-04-30T15:07:00.999Z,101762.63
2023-04-30T15:09:32.952Z,101741.06
2023-04-30T15:12:05.894Z,101773.25
2023-04-30T15:14:37.812Z,101767.84
2023-04-30T15:17:11.219Z,101754.56
2023-04-30T15:19:43.683Z,101754.63
2023-04-30T15:22:16.335Z,101752.03
2023-04-30T15:24:48.230Z,101759.19
2023-04-30T15:27:20.449Z,101753.81
2023-04-30T15:29:52.818Z,101755.59
2023-04-30T15:32:25.043Z,101757.41
2023-04-30T15:34:57.076Z,101750.13
2023-04-30T15:37:29.043Z,101747.34
2023-04-30T15:40:01.267Z,101758.78
2023-04-30T15:42:33.880Z,101749.00
2023-04-30T15:45:06.809Z,101742.84
2023-04-30T15:47:39.319Z,101735.78
2023-04-30T15:50:11.392Z,101735.84
2023-04-30T15:52:43.462Z,101736.66
2023-04-30T15:55:15.501Z,101724.97
2023-04-30T15:57:47.418Z,101725.81
2023-04-30T16:00:19.558Z,101730.19
2023-04-30T16:02:51.705Z,101732.88
2023-04-30T16:05:23.866Z,101729.34
2023-04-30T16:07:55.980Z,101716.00
2023-04-30T16:10:28.380Z,101712.47
2023-04-30T16:13:00.342Z,101708.91
2023-04-30T16:15:32.548Z,101715.13
2023-04-30T16:18:04.644Z,101692.69
2023-04-30T16:20:38.039Z,101723.91
2023-04-30T16:23:10.033Z,101714.00
2023-04-30T16:25:42.104Z,101721.94
2023-04-30T16:28:14.183Z,101712.97
2023-04-30T16:30:46.258Z,101686.00
2023-04-30T16:33:18.203Z,101712.06
2023-04-30T16:35:50.129Z,101709.47
2023-04-30T16:38:22.917Z,101706.81
2023-04-30T16:40:55.000Z,101699.66
2023-04-30T16:43:27.036Z,101688.91
2023-04-30T16:45:59.094Z,101688.91
2023-04-30T16:48:31.200Z,101704.19
2023-04-30T16:51:03.741Z,101692.59
2023-04-30T16:53:35.648Z,101695.31
2023-04-30T16:56:07.655Z,101689.03
2023-04-30T16:58:39.605Z,101697.88
2023-04-30T17:01:12.979Z,101695.13
2023-04-30T17:03:45.030Z,101684.34
2023-04-30T17:06:17.937Z,101686.94
2023-04-30T17:08:49.976Z,101681.50
2023-04-30T17:11:24.224Z,101681.50
2023-04-30T17:13:56.943Z,101679.69
2023-04-30T17:16:28.972Z,101677.84
2023-04-30T17:19:01.160Z,101672.44
2023-04-30T17:21:33.182Z,101676.91
2023-04-30T17:24:05.544Z,101681.31
2023-04-30T17:26:37.732Z,101676.81
2023-04-30T17:29:09.684Z,101671.44
2023-04-30T17:31:41.666Z,101677.69
2023-04-30T17:34:13.666Z,101674.09
2023-04-30T17:36:45.857Z,101643.63
2023-04-30T17:39:18.840Z,101670.47
2023-04-30T17:41:50.927Z,101673.06
2023-04-30T17:44:22.920Z,101662.25
2023-04-30T17:46:55.180Z,101669.28
2023-04-30T17:49:28.552Z,101667.41
2023-04-30T17:52:01.392Z,101670.94
2023-04-30T17:54:33.910Z,101661.06
2023-04-30T17:57:06.634Z,101661.91
2023-04-30T17:59:39.900Z,101661.88
2023-04-30T18:02:11.951Z,101664.50
2023-04-30T18:04:45.008Z,101644.78
2023-04-30T18:07:16.923Z,101644.75
2023-04-30T18:09:49.103Z,101643.84
2023-04-30T18:12:21.165Z,101653.69
2023-04-30T18:14:53.460Z,101645.63
2023-04-30T18:17:26.025Z,101653.59
2023-04-30T18:19:58.241Z,101650.88
2023-04-30T18:22:30.653Z,101652.47
2023-04-30T18:25:02.673Z,101654.16
2023-04-30T18:27:34.881Z,101647.88
2023-04-30T18:30:08.951Z,101656.69
2023-04-30T18:32:41.965Z,101654.00
2023-04-30T18:35:14.787Z,101653.09
2023-04-30T18:37:46.755Z,101644.03
2023-04-30T18:40:19.164Z,101647.56
2023-04-30T18:42:51.700Z,101648.44
2023-04-30T18:45:24.161Z,101648.34
2023-04-30T18:47:56.157Z,101647.44
2023-04-30T18:50:28.486Z,101643.84
2023-04-30T18:53:00.540Z,101646.47
2023-04-30T18:55:32.726Z,101651.78
2023-04-30T18:58:04.683Z,101655.25
2023-04-30T19:00:36.772Z,101645.44
2023-04-30T19:03:09.747Z,101641.72
2023-04-30T19:05:42.673Z,101649.75
2023-04-30T19:08:15.172Z,101650.53
2023-04-30T19:10:51.018Z,101654.00
2023-04-30T19:13:23.318Z,101625.84
2023-04-30T19:15:56.027Z,101638.69
2023-04-30T19:18:28.406Z,101655.56
2023-04-30T19:21:02.386Z,101655.59
2023-04-30T19:23:35.705Z,101660.84
2023-04-30T19:26:07.685Z,101669.72
2023-04-30T19:28:39.640Z,101660.75
2023-04-30T19:31:12.692Z,101640.16
2023-04-30T19:33:44.957Z,101673.03
2023-04-30T19:36:17.524Z,101667.63
2023-04-30T19:38:52.623Z,101657.72
2023-04-30T19:41:24.815Z,101665.72
2023-04-30T19:43:56.841Z,101663.84
2023-04-30T19:46:28.826Z,101663.81
2023-04-30T19:49:00.808Z,101667.25
2023-04-30T19:51:32.786Z,101661.00
2023-04-30T19:54:04.766Z,101660.94
2023-04-30T19:56:36.710Z,101648.38
2023-04-30T19:59:09.784Z,101651.84
2023-04-30T20:01:42.182Z,101655.34
2023-04-30T20:04:14.361Z,101650.78
2023-04-30T20:06:47.492Z,101654.31
2023-04-30T20:09:19.591Z,101626.41
2023-04-30T20:11:51.825Z,101653.38
2023-04-30T20:14:24.029Z,101638.06
2023-04-30T20:16:56.565Z,101655.88
2023-04-30T20:19:28.576Z,101653.09
2023-04-30T20:22:02.178Z,101648.69
2023-04-30T20:24:34.430Z,101652.06
2023-04-30T20:27:07.469Z,101649.41
2023-04-30T20:29:42.647Z,101657.38
2023-04-30T20:32:14.649Z,101643.16
2023-04-30T20:34:46.637Z,101635.84
2023-04-30T20:37:18.704Z,101644.81
2023-04-30T20:39:51.330Z,101641.56
2023-04-30T20:42:23.286Z,101636.88
2023-04-30T20:44:56.333Z,101637.59
2023-04-30T20:47:28.443Z,101649.91
2023-04-30T20:50:00.575Z,101642.69
2023-04-30T20:52:32.497Z,101647.94
2023-04-30T20:55:04.990Z,101650.50
2023-04-30T20:57:40.234Z,101648.59
2023-04-30T21:00:13.374Z,101648.44
2023-04-30T21:02:45.666Z,101649.25
2023-04-30T21:05:17.889Z,101648.34
2023-04-30T21:07:49.771Z,101642.88
2023-04-30T21:10:22.108Z,101641.94
2023-04-30T21:12:54.611Z,101621.25
2023-04-30T21:15:26.940Z,101637.28
2023-04-30T21:17:59.013Z,101625.53
2023-04-30T21:20:31.737Z,101632.63
2023-04-30T21:23:04.198Z,101594.84
2023-04-30T21:25:40.109Z,101627.25
2023-04-30T21:28:12.099Z,101629.88
2023-04-30T21:30:44.794Z,101621.94
2023-04-30T21:33:16.824Z,101625.53
2023-04-30T21:35:48.761Z,101619.25
2023-04-30T21:38:20.656Z,101622.03
2023-04-30T21:40:52.741Z,101621.09
2023-04-30T21:43:24.755Z,101613.13
2023-04-30T21:46:03.982Z,101617.50
2023-04-30T21:48:38.378Z,101614.81
2023-04-30T21:51:16.842Z,101612.19
2023-04-30T21:53:48.735Z,101579.88
2023-04-30T21:56:21.860Z,101609.53
2023-04-30T21:58:53.931Z,101601.50
2023-04-30T22:01:29.804Z,101600.59
2023-04-30T22:04:02.229Z,101598.84
2023-04-30T22:06:34.777Z,101597.94
2023-04-30T22:09:06.957Z,101593.41
2023-04-30T22:11:38.973Z,101585.31
2023-04-30T22:14:10.953Z,101580.03
2023-04-30T22:16:43.151Z,101589.81
2023-04-30T22:19:15.116Z,101579.19
2023-04-30T22:21:47.030Z,101581.84
2023-04-30T22:24:19.212Z,101573.81
2023-04-30T22:26:52.012Z,101572.06
2023-04-30T22:29:24.073Z,101570.25
2023-04-30T22:31:57.540Z,101564.88
2023-04-30T22:34:30.539Z,101573.75
2023-04-30T22:37:03.441Z,101570.19
2023-04-30T22:39:35.385Z,101576.34
2023-04-30T22:42:09.626Z,101576.34
2023-04-30T22:44:41.772Z,101569.13
2023-04-30T22:47:13.938Z,101570.03
2023-04-30T22:49:46.084Z,101571.81
2023-04-30T22:52:18.295Z,101566.47
2023-04-30T22:54:50.991Z,101569.06
2023-04-30T22:57:23.924Z,101569.88
2023-04-30T22:59:56.595Z,101570.69
2023-04-30T23:02:28.977Z,101563.56
2023-04-30T23:05:00.972Z,101560.91
2023-04-30T23:07:33.021Z,101562.53
2023-04-30T23:10:06.252Z,101556.28
2023-04-30T23:12:38.627Z,101544.78
2023-04-30T23:15:10.987Z,101557.06
2023-04-30T23:17:42.988Z,101555.38
2023-04-30T23:20:15.826Z,101551.63
2023-04-30T23:22:47.769Z,101551.69
2023-04-30T23:25:19.834Z,101548.19
2023-04-30T23:27:52.461Z,101546.38
2023-04-30T23:30:25.256Z,101522.34
2023-04-30T23:32:57.251Z,101537.41
2023-04-30T23:35:29.199Z,101537.41
2023-04-30T23:38:01.104Z,101539.22
2023-04-30T23:40:34.201Z,101515.91
2023-04-30T23:43:06.143Z,101538.25
2023-04-30T23:45:43.982Z,101519.50
2023-04-30T23:48:15.975Z,101523.09
2023-04-30T23:50:47.920Z,101519.50
2023-04-30T23:53:19.869Z,101511.53
2023-04-30T23:55:52.898Z,101477.44
2023-04-30T23:58:26.057Z,101510.66
